createdAt,value
2022-09-03T00:02:28.450Z,5.00
2022-09-03T00:05:58.002Z,5.02
2022-09-03T00:09:27.826Z,4.96
2022-09-03T00:12:56.412Z,4.94
2022-09-03T00:16:24.756Z,4.91
2022-09-03T00:19:55.239Z,4.86
2022-09-03T00:23:23.523Z,4.79
2022-09-03T00:26:52.526Z,4.74
2022-09-03T00:30:17.843Z,4.70
2022-09-03T00:33:44.792Z,4.59
2022-09-03T00:37:07.343Z,4.58
2022-09-03T00:40:57.900Z,4.52
2022-09-03T00:44:48.761Z,4.46
2022-09-03T00:48:20.530Z,4.40
2022-09-03T00:51:57.827Z,4.36
2022-09-03T00:55:33.077Z,4.29
2022-09-03T00:59:11.088Z,4.22
2022-09-03T01:02:47.943Z,4.20
2022-09-03T01:06:21.069Z,4.12
2022-09-03T01:09:55.603Z,4.09
2022-09-03T01:13:22.250Z,4.04
2022-09-03T01:16:53.093Z,4.01
2022-09-03T01:20:37.046Z,4.01
2022-09-03T01:24:23.868Z,3.96
2022-09-03T01:28:10.686Z,3.94
2022-09-03T01:31:42.862Z,3.93
2022-09-03T01:35:16.889Z,3.92
2022-09-03T01:38:48.445Z,3.93
2022-09-03T01:42:21.538Z,3.94
2022-09-03T01:45:55.137Z,3.94
2022-09-03T01:49:26.101Z,3.80
2022-09-03T01:52:56.984Z,3.79
2022-09-03T01:56:39.080Z,3.79
2022-09-03T02:00:06.411Z,3.72
2022-09-03T02:03:40.905Z,3.63
2022-09-03T02:07:06.465Z,3.62
2022-09-03T02:10:33.727Z,3.57
2022-09-03T02:14:00.496Z,3.48
2022-09-03T02:17:23.740Z,3.41
2022-09-03T02:20:49.690Z,3.38
2022-09-03T02:24:12.631Z,3.34
2022-09-03T02:27:36.102Z,3.32
2022-09-03T02:30:59.030Z,3.29
2022-09-03T02:34:22.025Z,3.26
2022-09-03T02:37:46.108Z,3.33
2022-09-03T02:41:08.864Z,3.25
2022-09-03T02:44:35.101Z,3.34
2022-09-03T02:48:02.255Z,3.27
2022-09-03T02:51:24.810Z,3.32
2022-09-03T02:54:51.145Z,3.30
2022-09-03T02:58:13.936Z,3.27
2022-09-03T03:01:38.417Z,3.28
2022-09-03T03:05:04.938Z,3.26
2022-09-03T03:08:30.940Z,3.25
2022-09-03T03:11:55.877Z,3.32
2022-09-03T03:15:18.838Z,3.34
2022-09-03T03:18:42.109Z,3.33
2022-09-03T03:22:05.066Z,3.33
2022-09-03T03:25:27.722Z,3.35
2022-09-03T03:28:57.846Z,3.33
2022-09-03T03:32:20.707Z,3.32
2022-09-03T03:35:43.663Z,3.32
2022-09-03T03:39:06.520Z,3.29
2022-09-03T03:42:29.482Z,3.25
2022-09-03T03:46:00.567Z,3.24
2022-09-03T03:49:23.801Z,3.22
2022-09-03T03:52:46.450Z,3.22
2022-09-03T03:56:11.866Z,3.22
2022-09-03T03:59:34.826Z,3.20
2022-09-03T04:02:59.423Z,3.20
2022-09-03T04:06:22.797Z,3.23
2022-09-03T04:09:46.060Z,3.24
2022-09-03T04:13:08.819Z,3.26
2022-09-03T04:16:32.519Z,3.35
2022-09-03T04:19:56.685Z,3.42
2022-09-03T04:23:19.846Z,3.48
2022-09-03T04:26:42.805Z,3.58
2022-09-03T04:30:06.278Z,3.72
2022-09-03T04:33:29.136Z,3.84
2022-09-03T04:36:54.556Z,3.95
2022-09-03T04:40:17.968Z,4.09
2022-09-03T04:43:43.038Z,4.27
2022-09-03T04:47:05.787Z,4.42
2022-09-03T04:50:29.157Z,4.60
2022-09-03T04:53:57.171Z,4.74
2022-09-03T04:57:20.709Z,4.98
2022-09-03T05:00:43.596Z,5.21
2022-09-03T05:04:10.017Z,5.39
2022-09-03T05:07:38.976Z,5.55
2022-09-03T05:11:03.710Z,5.68
2022-09-03T05:14:26.671Z,5.80
2022-09-03T05:17:49.735Z,5.96
2022-09-03T05:21:14.131Z,6.11
2022-09-03T05:24:36.886Z,6.24
2022-09-03T05:28:02.300Z,6.50
2022-09-03T05:31:28.600Z,6.64
2022-09-03T05:34:51.605Z,6.67
2022-09-03T05:38:14.966Z,6.80
2022-09-03T05:41:37.420Z,6.87
2022-09-03T05:45:02.114Z,7.08
2022-09-03T05:48:24.850Z,7.21
2022-09-03T05:51:47.936Z,7.32
2022-09-03T05:55:13.582Z,7.52
2022-09-03T05:58:40.981Z,7.74
2022-09-03T06:02:05.910Z,7.95
2022-09-03T06:05:29.197Z,8.08
2022-09-03T06:08:52.153Z,8.17
2022-09-03T06:12:14.809Z,8.28
2022-09-03T06:15:37.764Z,8.37
2022-09-03T06:19:03.183Z,8.59
2022-09-03T06:22:28.812Z,8.81
2022-09-03T06:26:05.053Z,8.84
2022-09-03T06:29:28.958Z,9.10
2022-09-03T06:32:52.991Z,9.32
2022-09-03T06:36:19.495Z,9.46
2022-09-03T06:39:42.500Z,9.64
2022-09-03T06:43:05.308Z,9.89
2022-09-03T06:46:28.467Z,10.16
2022-09-03T06:49:51.944Z,10.35
2022-09-03T06:53:17.156Z,10.51
2022-09-03T06:56:42.467Z,10.64
2022-09-03T07:00:06.150Z,10.82
2022-09-03T07:03:28.903Z,10.87
2022-09-03T07:06:52.005Z,10.93
2022-09-03T07:10:16.765Z,11.09
2022-09-03T07:13:41.368Z,11.20
2022-09-03T07:17:04.529Z,11.38
2022-09-03T07:20:27.180Z,11.56
2022-09-03T07:23:50.551Z,11.57
2022-09-03T07:27:15.253Z,11.63
2022-09-03T07:30:38.211Z,11.68
2022-09-03T07:34:06.197Z,11.73
2022-09-03T07:37:34.069Z,11.86
2022-09-03T07:41:00.816Z,11.93
2022-09-03T07:44:25.615Z,12.10
2022-09-03T07:47:52.161Z,12.13
2022-09-03T07:51:15.221Z,12.19
2022-09-03T07:54:38.181Z,12.31
2022-09-03T07:58:01.654Z,12.30
2022-09-03T08:01:27.890Z,12.51
2022-09-03T08:04:50.951Z,12.58
2022-09-03T08:08:15.548Z,12.68
2022-09-03T08:11:41.173Z,12.72
2022-09-03T08:15:04.240Z,12.64
2022-09-03T08:18:36.007Z,12.54
2022-09-03T08:21:59.169Z,12.53
2022-09-03T08:25:21.825Z,12.70
2022-09-03T08:28:45.189Z,12.84
2022-09-03T08:32:07.942Z,13.04
2022-09-03T08:35:35.308Z,13.24
2022-09-03T08:39:00.007Z,13.43
2022-09-03T08:42:31.571Z,13.25
2022-09-03T08:45:54.534Z,13.09
2022-09-03T08:49:23.537Z,13.15
2022-09-03T08:52:51.816Z,13.20
2022-09-03T08:56:29.535Z,13.21
2022-09-03T08:59:56.482Z,13.24
2022-09-03T09:03:36.741Z,13.28
2022-09-03T09:07:07.587Z,13.38
2022-09-03T09:10:39.970Z,13.51
2022-09-03T09:14:06.516Z,13.41
2022-09-03T09:17:59.068Z,13.56
2022-09-03T09:21:29.499Z,13.52
2022-09-03T09:24:55.945Z,13.56
2022-09-03T09:28:22.790Z,13.71
2022-09-03T09:31:46.368Z,13.95
2022-09-03T09:35:12.710Z,13.98
2022-09-03T09:38:37.201Z,14.10
2022-09-03T09:42:02.721Z,14.01
2022-09-03T09:45:27.222Z,13.83
2022-09-03T09:48:53.350Z,13.74
2022-09-03T09:52:18.364Z,13.97
2022-09-03T09:55:51.154Z,14.01
2022-09-03T09:59:15.850Z,13.90
2022-09-03T10:02:42.755Z,13.89
2022-09-03T10:06:26.041Z,13.85
2022-09-03T10:09:59.758Z,13.90
2022-09-03T10:13:29.368Z,13.99
2022-09-03T10:17:00.731Z,14.11
2022-09-03T10:20:34.251Z,14.02
2022-09-03T10:24:07.167Z,14.17
2022-09-03T10:27:31.989Z,14.20
2022-09-03T10:31:38.203Z,14.08
2022-09-03T10:35:10.891Z,13.93
2022-09-03T10:38:38.258Z,13.80
2022-09-03T10:42:14.630Z,13.84
2022-09-03T10:45:43.219Z,13.83
2022-09-03T10:49:30.552Z,13.83
2022-09-03T10:53:09.385Z,13.74
2022-09-03T10:56:44.125Z,13.62
2022-09-03T11:00:11.183Z,13.53
2022-09-03T11:03:46.226Z,13.56
2022-09-03T11:07:14.403Z,13.63
2022-09-03T11:10:41.565Z,13.77
2022-09-03T11:14:10.891Z,13.94
2022-09-03T11:17:36.185Z,14.07
2022-09-03T11:21:08.848Z,14.19
2022-09-03T11:24:35.932Z,14.36
2022-09-03T11:28:12.066Z,14.23
2022-09-03T11:31:48.677Z,14.19
2022-09-03T11:35:17.583Z,14.27
2022-09-03T11:38:40.230Z,14.27
2022-09-03T11:42:07.493Z,14.10
2022-09-03T11:45:38.717Z,14.07
2022-09-03T11:49:15.258Z,14.16
2022-09-03T11:52:41.078Z,14.28
2022-09-03T11:56:19.358Z,14.22
2022-09-03T11:59:44.991Z,14.31
2022-09-03T12:03:09.180Z,14.46
2022-09-03T12:07:05.935Z,14.58
2022-09-03T12:10:38.828Z,14.81
2022-09-03T12:14:13.496Z,14.94
2022-09-03T12:17:46.765Z,14.98
2022-09-03T12:21:12.082Z,14.95
2022-09-03T12:24:38.414Z,14.88
2022-09-03T12:28:03.732Z,14.77
2022-09-03T12:31:30.293Z,14.66
2022-09-03T12:34:53.235Z,14.56
2022-09-03T12:38:18.803Z,14.48
2022-09-03T12:41:59.738Z,14.43
2022-09-03T12:45:25.247Z,14.54
2022-09-03T12:52:44.253Z,14.91
2022-09-03T12:56:06.909Z,15.14
2022-09-03T12:59:35.903Z,15.25
2022-09-03T13:03:05.217Z,15.28
2022-09-03T13:06:33.606Z,15.26
2022-09-03T13:10:05.269Z,15.15
2022-09-03T13:13:30.275Z,14.97
2022-09-03T13:17:11.772Z,14.71
2022-09-03T13:20:50.292Z,14.48
2022-09-03T13:24:30.253Z,14.35
2022-09-03T13:28:03.042Z,14.42
2022-09-03T13:31:33.277Z,14.47
2022-09-03T13:35:02.277Z,14.64
2022-09-03T13:38:31.925Z,14.68
2022-09-03T13:42:06.633Z,14.74
2022-09-03T13:45:37.607Z,14.76
2022-09-03T13:49:26.239Z,14.80
2022-09-03T13:52:57.694Z,14.72
2022-09-03T13:56:36.937Z,14.50
2022-09-03T14:00:05.330Z,14.36
2022-09-03T14:03:35.108Z,14.25
2022-09-03T14:07:04.968Z,14.16
2022-09-03T14:10:41.038Z,14.21
2022-09-03T14:14:14.235Z,14.29
2022-09-03T14:17:43.541Z,14.38
2022-09-03T14:21:09.112Z,14.37
2022-09-03T14:24:46.258Z,14.27
2022-09-03T14:28:27.650Z,14.19
2022-09-03T14:32:24.913Z,14.21
2022-09-03T14:36:04.874Z,14.25
2022-09-03T14:39:35.869Z,14.26
2022-09-03T14:43:16.067Z,14.18
2022-09-03T14:46:55.938Z,14.14
2022-09-03T14:50:33.962Z,13.88
2022-09-03T14:54:40.638Z,13.77
2022-09-03T14:58:20.909Z,13.64
2022-09-03T15:01:47.556Z,13.63
2022-09-03T15:05:15.634Z,13.60
2022-09-03T15:08:53.203Z,13.58
2022-09-03T15:12:23.261Z,13.58
2022-09-03T15:16:02.203Z,13.51
2022-09-03T15:19:51.268Z,13.50
2022-09-03T15:23:27.746Z,13.46
2022-09-03T15:27:05.762Z,13.47
2022-09-03T15:30:37.834Z,13.47
2022-09-03T15:34:09.701Z,13.47
2022-09-03T15:37:43.137Z,13.45
2022-09-03T15:41:12.139Z,13.43
2022-09-03T15:44:41.929Z,13.38
2022-09-03T15:48:15.741Z,13.25
2022-09-03T15:51:48.017Z,13.23
2022-09-03T15:55:16.099Z,13.13
2022-09-03T15:58:43.876Z,13.07
2022-09-03T16:02:11.654Z,12.99
2022-09-03T16:05:43.106Z,12.92
2022-09-03T16:09:12.111Z,12.84
2022-09-03T16:12:46.944Z,12.78
2022-09-03T16:16:14.163Z,12.71
2022-09-03T16:19:44.338Z,12.63
2022-09-03T16:23:14.261Z,12.59
2022-09-03T16:26:44.586Z,12.48
2022-09-03T16:30:14.613Z,12.39
2022-09-03T16:33:48.736Z,12.32
2022-09-03T16:37:20.808Z,12.25
2022-09-03T16:40:51.352Z,12.19
2022-09-03T16:44:22.605Z,12.10
2022-09-03T16:48:03.151Z,11.96
2022-09-03T16:51:35.759Z,11.86
2022-09-03T16:55:11.113Z,11.79
2022-09-03T16:58:47.280Z,11.68
2022-09-03T17:02:41.078Z,11.60
2022-09-03T17:06:31.365Z,11.48
2022-09-03T17:10:02.616Z,11.34
2022-09-03T17:13:57.158Z,11.13
2022-09-03T17:17:33.800Z,11.10
2022-09-03T17:21:12.021Z,10.97
2022-09-03T17:24:45.421Z,10.83
2022-09-03T17:28:27.160Z,10.69
2022-09-03T17:31:56.163Z,10.54
2022-09-03T17:35:24.305Z,10.41
2022-09-03T17:39:27.541Z,10.28
2022-09-03T17:43:01.322Z,10.17
2022-09-03T17:46:33.272Z,10.06
2022-09-03T17:50:02.092Z,9.93
2022-09-03T17:53:31.297Z,9.75
2022-09-03T17:57:03.676Z,9.59
2022-09-03T18:00:35.644Z,9.46
2022-09-03T18:04:05.353Z,9.37
2022-09-03T18:07:34.671Z,9.29
2022-09-03T18:11:11.053Z,9.20
2022-09-03T18:14:39.745Z,9.05
2022-09-03T18:18:07.925Z,8.90
2022-09-03T18:21:53.822Z,8.79
2022-09-03T18:25:34.408Z,8.70
2022-09-03T18:29:20.396Z,8.59
2022-09-03T18:33:00.350Z,8.49
2022-09-03T18:36:42.358Z,8.38
2022-09-03T18:40:22.622Z,8.34
2022-09-03T18:57:27.068Z,7.98
2022-09-03T19:01:17.793Z,7.85
2022-09-03T19:05:13.152Z,7.82
2022-09-03T19:09:00.141Z,7.68
2022-09-03T19:12:59.056Z,7.58
2022-09-03T19:16:48.639Z,7.50
2022-09-03T19:20:37.268Z,7.44
2022-09-03T19:24:20.975Z,7.35
2022-09-03T19:28:14.054Z,7.28
2022-09-03T19:32:05.815Z,7.18
2022-09-03T19:35:56.195Z,7.11
2022-09-03T19:39:53.413Z,7.09
2022-09-03T19:43:43.416Z,7.03
2022-09-03T19:47:25.261Z,6.87
2022-09-03T19:51:28.414Z,6.84
2022-09-03T19:55:13.583Z,6.80
2022-09-03T19:58:59.105Z,6.72
2022-09-03T20:02:38.863Z,6.59
2022-09-03T20:06:20.512Z,6.53
2022-09-03T20:10:02.205Z,6.49
2022-09-03T20:13:24.317Z,6.42
2022-09-03T20:16:58.918Z,6.36
2022-09-03T20:20:27.583Z,6.31
2022-09-03T20:23:59.489Z,6.21
2022-09-03T20:27:32.103Z,6.18
2022-09-03T20:31:02.886Z,6.11
2022-09-03T20:34:37.691Z,6.04
2022-09-03T20:38:08.196Z,5.97
2022-09-03T20:41:38.563Z,5.95
2022-09-03T20:45:08.514Z,5.91
2022-09-03T20:48:36.961Z,5.88
2022-09-03T20:52:06.293Z,5.82
2022-09-03T20:55:30.915Z,5.72
2022-09-03T20:59:02.495Z,5.73
2022-09-03T21:02:38.676Z,5.74
2022-09-03T21:06:12.960Z,5.70
2022-09-03T21:09:45.336Z,5.67
2022-09-03T21:13:16.201Z,5.62
2022-09-03T21:16:44.360Z,5.57
2022-09-03T21:20:18.884Z,5.49
2022-09-03T21:23:44.544Z,5.40
2022-09-03T21:27:14.333Z,5.34
2022-09-03T21:30:40.901Z,5.31
2022-09-03T21:34:10.907Z,5.29
2022-09-03T21:37:36.095Z,5.28
2022-09-03T21:41:06.476Z,5.25
2022-09-03T21:44:46.538Z,5.18
2022-09-03T21:48:11.343Z,5.16
2022-09-03T21:51:38.777Z,5.11
2022-09-03T21:55:02.459Z,5.06
2022-09-03T21:58:38.547Z,4.97
2022-09-03T22:02:08.317Z,4.91
2022-09-03T22:05:34.488Z,4.83
2022-09-03T22:09:05.221Z,4.77
2022-09-03T22:12:33.919Z,4.72
2022-09-03T22:16:01.624Z,4.65
2022-09-03T22:19:25.516Z,4.58
2022-09-03T22:22:56.706Z,4.54
2022-09-03T22:26:30.163Z,4.51
2022-09-03T22:30:02.680Z,4.34
2022-09-03T22:33:28.926Z,4.45
2022-09-03T22:36:55.193Z,4.42
2022-09-03T22:40:26.079Z,4.37
2022-09-03T22:43:53.358Z,4.32
2022-09-03T22:47:26.477Z,4.31
2022-09-03T22:50:57.185Z,4.28
2022-09-03T22:54:37.313Z,4.22
2022-09-03T22:58:06.548Z,4.20
2022-09-03T23:01:34.867Z,4.16
2022-09-03T23:05:05.781Z,4.08
2022-09-03T23:08:33.787Z,4.06
2022-09-03T23:12:01.255Z,4.08
2022-09-03T23:15:30.456Z,4.06
2022-09-03T23:18:53.386Z,4.05
2022-09-03T23:22:22.190Z,4.02
2022-09-03T23:25:49.044Z,3.92
2022-09-03T23:29:16.201Z,3.96
2022-09-03T23:32:38.359Z,3.94
2022-09-03T23:36:14.015Z,3.94
2022-09-03T23:40:01.397Z,3.91
2022-09-03T23:43:53.776Z,3.97
2022-09-03T23:47:31.705Z,3.98
2022-09-03T23:51:05.364Z,3.93
2022-09-03T23:54:38.383Z,3.96
2022-09-03T23:58:10.507Z,3.90
